Time;durP1;ratioP1;P1;durP2;ratioP2;P2;SDS_P1;SDS_P2;PMS_P1;PMS_P2;Temp;Humidity;BMP_temperature;BMP_pressure;BME280_temperature;BME280_humidity;BME280_pressure;Samples;Min_cycle;Max_cycle;Signal;HPM_P1;HPM_P2
2023/07/13 00:00:36;;;;;;;8.77;2.00;;;;;;;;;;4905313;29;20031;-81
2023/07/13 00:03:04;;;;;;;3.75;2.00;;;;;;;;;;4919956;29;20036;-83
2023/07/13 00:05:31;;;;;;;8.07;2.40;;;;;;;;;;4921525;29;20045;-80
2023/07/13 00:07:58;;;;;;;5.05;2.50;;;;;;;;;;4911758;29;20493;-81
2023/07/13 00:10:26;;;;;;;4.35;2.42;;;;;;;;;;4928876;29;20031;-81
2023/07/13 00:12:54;;;;;;;6.50;2.65;;;;;;;;;;4910691;29;20036;-81
2023/07/13 00:15:25;;;;;;;6.43;2.20;;;;;;;;;;4911412;29;20044;-82
2023/07/13 00:17:56;;;;;;;5.85;2.25;;;;;;;;;;4921239;29;20102;-81
2023/07/13 00:20:24;;;;;;;6.60;2.72;;;;;;;;;;4902350;29;20032;-81
2023/07/13 00:22:53;;;;;;;9.07;2.67;;;;;;;;;;4902940;29;20051;-81
2023/07/13 00:25:20;;;;;;;6.18;2.40;;;;;;;;;;4901721;29;20028;-81
2023/07/13 00:27:50;;;;;;;5.10;2.17;;;;;;;;;;4910813;29;20413;-81
2023/07/13 00:30:17;;;;;;;4.30;2.08;;;;;;;;;;4894748;29;20123;-81
2023/07/13 00:32:44;;;;;;;5.82;2.33;;;;;;;;;;4899905;29;20047;-81
2023/07/13 00:35:11;;;;;;;5.38;2.28;;;;;;;;;;4918344;29;20032;-81
2023/07/13 00:37:37;;;;;;;6.78;2.20;;;;;;;;;;4903035;29;20087;-81
2023/07/13 00:40:07;;;;;;;5.57;2.90;;;;;;;;;;4900711;29;20380;-81
2023/07/13 00:42:41;;;;;;;8.93;2.85;;;;;;;;;;4906058;29;20118;-81
2023/07/13 00:45:14;;;;;;;5.70;2.20;;;;;;;;;;4917902;29;20028;-81
2023/07/13 00:47:42;;;;;;;5.35;2.42;;;;;;;;;;4920937;29;20032;-81
2023/07/13 00:50:11;;;;;;;5.95;2.47;;;;;;;;;;4919584;29;20036;-81
2023/07/13 00:52:39;;;;;;;6.53;2.25;;;;;;;;;;4915075;29;20073;-81
2023/07/13 00:55:07;;;;;;;3.95;2.00;;;;;;;;;;4921215;29;20036;-84
2023/07/13 00:57:37;;;;;;;12.25;2.03;;;;;;;;;;4918295;29;20036;-81
2023/07/13 01:00:06;;;;;;;5.50;2.00;;;;;;;;;;4903867;29;20071;-81
2023/07/13 01:02:34;;;;;;;4.22;1.67;;;;;;;;;;4922058;29;20064;-81
2023/07/13 01:05:01;;;;;;;4.07;1.90;;;;;;;;;;4904424;29;20028;-83
2023/07/13 01:07:31;;;;;;;4.63;2.00;;;;;;;;;;4905548;29;20024;-81
2023/07/13 01:09:58;;;;;;;5.05;2.10;;;;;;;;;;4928200;29;20051;-82
2023/07/13 01:12:25;;;;;;;6.43;1.80;;;;;;;;;;4930467;29;20036;-81
2023/07/13 01:14:57;;;;;;;4.75;2.20;;;;;;;;;;4914122;29;20024;-82
2023/07/13 01:17:28;;;;;;;6.05;2.25;;;;;;;;;;4929043;29;20025;-83
2023/07/13 01:19:57;;;;;;;6.38;2.10;;;;;;;;;;4923947;29;20075;-81
2023/07/13 01:22:25;;;;;;;7.80;2.08;;;;;;;;;;4925773;29;20035;-82
2023/07/13 01:24:53;;;;;;;5.65;2.30;;;;;;;;;;4919121;29;20032;-81
2023/07/13 01:27:25;;;;;;;4.22;2.03;;;;;;;;;;4915308;29;20028;-81
2023/07/13 01:30:04;;;;;;;7.90;2.67;;;;;;;;;;4938138;29;20047;-86
2023/07/13 01:32:32;;;;;;;6.68;2.60;;;;;;;;;;4939856;29;20073;-83
2023/07/13 01:34:59;;;;;;;6.93;2.42;;;;;;;;;;4934621;28;20031;-86
2023/07/13 01:37:33;;;;;;;7.18;2.42;;;;;;;;;;4912380;29;20040;-86
2023/07/13 01:40:09;;;;;;;5.70;2.78;;;;;;;;;;4924019;29;20024;-86
2023/07/13 01:42:44;;;;;;;4.72;2.40;;;;;;;;;;4923278;29;20024;-81
2023/07/13 01:45:11;;;;;;;4.85;2.28;;;;;;;;;;4904033;29;20032;-81
2023/07/13 01:47:38;;;;;;;5.20;2.60;;;;;;;;;;4887439;29;20032;-81
2023/07/13 01:50:05;;;;;;;4.68;2.60;;;;;;;;;;4914391;29;20043;-82
2023/07/13 01:52:32;;;;;;;9.77;2.47;;;;;;;;;;4903607;29;20075;-82
2023/07/13 01:54:58;;;;;;;8.30;2.20;;;;;;;;;;4890284;29;20167;-81
2023/07/13 01:57:25;;;;;;;4.80;2.70;;;;;;;;;;4901814;29;20039;-82
2023/07/13 01:59:56;;;;;;;5.32;2.50;;;;;;;;;;4917292;29;20028;-82
2023/07/13 02:02:25;;;;;;;5.30;2.50;;;;;;;;;;4917676;29;20051;-81
2023/07/13 02:04:53;;;;;;;5.85;2.33;;;;;;;;;;4898619;29;20032;-80
2023/07/13 02:07:20;;;;;;;6.00;2.50;;;;;;;;;;4904522;29;20039;-80
2023/07/13 02:09:47;;;;;;;5.82;2.63;;;;;;;;;;4897057;29;20024;-82
2023/07/13 02:12:23;;;;;;;6.25;2.47;;;;;;;;;;4901499;29;20028;-82
2023/07/13 02:14:49;;;;;;;5.32;2.47;;;;;;;;;;4894814;29;20036;-83
2023/07/13 02:17:17;;;;;;;7.18;2.35;;;;;;;;;;4909703;29;20036;-80
2023/07/13 02:19:49;;;;;;;4.55;2.65;;;;;;;;;;4901049;29;20040;-81
2023/07/13 02:22:17;;;;;;;7.72;2.40;;;;;;;;;;4917333;29;20109;-80
2023/07/13 02:24:45;;;;;;;8.07;2.50;;;;;;;;;;4905201;29;20554;-81
2023/07/13 02:27:17;;;;;;;4.35;2.30;;;;;;;;;;4918085;29;20086;-80
2023/07/13 02:29:43;;;;;;;4.47;2.20;;;;;;;;;;4901144;29;20036;-80
2023/07/13 02:32:10;;;;;;;5.32;2.42;;;;;;;;;;4900699;29;20037;-80
2023/07/13 02:34:37;;;;;;;4.75;2.70;;;;;;;;;;4901587;29;20376;-81
2023/07/13 02:37:04;;;;;;;5.32;2.35;;;;;;;;;;4917287;29;20043;-80
2023/07/13 02:39:34;;;;;;;6.73;2.60;;;;;;;;;;4920090;29;20055;-80
2023/07/13 02:42:01;;;;;;;4.70;2.35;;;;;;;;;;4901967;29;20212;-81
2023/07/13 02:44:27;;;;;;;6.32;2.67;;;;;;;;;;4901909;29;20030;-80
2023/07/13 02:46:55;;;;;;;7.22;2.35;;;;;;;;;;4918821;29;20025;-80
2023/07/13 02:49:24;;;;;;;9.57;2.95;;;;;;;;;;5119421;23;20032;-82
2023/07/13 02:51:52;;;;;;;4.40;2.35;;;;;;;;;;4965712;23;20115;-82
2023/07/13 02:54:19;;;;;;;5.45;2.13;;;;;;;;;;4881162;29;20049;-81
2023/07/13 02:56:45;;;;;;;5.65;2.33;;;;;;;;;;4905203;29;20036;-81
2023/07/13 02:59:12;;;;;;;6.75;2.22;;;;;;;;;;4896973;29;20037;-82
2023/07/13 03:01:40;;;;;;;5.75;2.40;;;;;;;;;;4895131;29;20032;-82
2023/07/13 03:04:08;;;;;;;5.35;2.38;;;;;;;;;;4896211;29;20039;-81
2023/07/13 03:06:35;;;;;;;4.25;2.40;;;;;;;;;;4895311;29;20031;-80
2023/07/13 03:09:02;;;;;;;6.18;2.33;;;;;;;;;;4912864;29;20377;-82
2023/07/13 03:11:29;;;;;;;5.40;2.55;;;;;;;;;;4889310;29;20103;-81
2023/07/13 03:13:57;;;;;;;7.53;2.42;;;;;;;;;;4879325;29;20506;-81
2023/07/13 03:16:24;;;;;;;6.60;2.88;;;;;;;;;;4901733;29;20143;-82
2023/07/13 03:18:51;;;;;;;5.43;3.10;;;;;;;;;;4894858;29;20068;-82
2023/07/13 03:21:19;;;;;;;3.83;2.40;;;;;;;;;;4895030;29;20033;-82
2023/07/13 03:23:46;;;;;;;6.95;2.55;;;;;;;;;;4899984;29;20040;-82
2023/07/13 03:26:15;;;;;;;6.07;2.50;;;;;;;;;;4913059;29;20056;-83
2023/07/13 03:28:41;;;;;;;7.28;2.75;;;;;;;;;;4907001;29;20028;-82
2023/07/13 03:31:29;;;;;;;3.03;2.10;;;16.10;99.90;;;;;;4906980;29;20052;-82
2023/07/13 03:33:56;;;;;;;5.75;2.30;;;;;;;;;;4917800;29;20032;-81
2023/07/13 03:36:24;;;;;;;7.00;2.35;;;;;;;;;;4906998;29;20033;-81
2023/07/13 03:38:52;;;;;;;6.30;2.33;;;;;;;;;;4897423;29;20125;-82
2023/07/13 03:41:20;;;;;;;4.90;2.60;;;;;;;;;;4911114;29;20056;-80
2023/07/13 03:43:49;;;;;;;5.60;2.55;;;;;;;;;;4897216;29;20161;-81
2023/07/13 03:46:17;;;;;;;7.05;2.25;;;;;;;;;;4899854;29;20373;-80
2023/07/13 03:48:46;;;;;;;7.50;2.35;;;;;;;;;;4876661;29;20052;-82
2023/07/13 03:51:44;;;;;;;7.13;2.33;;;16.10;99.90;;;;;;4902899;29;20057;-82
2023/07/13 03:54:51;;;;;;;6.22;2.70;;;;;;;;;;4909113;29;20041;-82
2023/07/13 03:57:44;;;;;;;4.88;2.30;;;;;;;;;;4907383;29;20036;-81
2023/07/13 04:00:15;;;;;;;6.25;2.33;;;;;;;;;;4889698;29;20044;-81
2023/07/13 04:03:05;;;;;;;6.50;2.78;;;;;;;;;;4905148;29;20129;-82
2023/07/13 04:05:38;;;;;;;5.63;2.58;;;;;;;;;;4906896;29;20068;-82
2023/07/13 04:08:09;;;;;;;7.15;2.63;;;;;;;;;;4900755;29;20041;-82
2023/07/13 04:10:58;;;;;;;6.05;2.65;;;;;;;;;;4903003;29;20033;-82
2023/07/13 04:13:36;;;;;;;4.78;2.35;;;;;;;;;;4895588;29;20040;-83
2023/07/13 04:16:13;;;;;;;9.43;3.13;;;16.30;99.90;;;;;;4904340;29;20072;-81
2023/07/13 04:19:00;;;;;;;6.63;2.88;;;;;;;;;;4904592;29;20054;-83
2023/07/13 04:21:35;;;;;;;7.70;2.58;;;;;;;;;;4900060;29;20055;-86
2023/07/13 04:24:13;;;;;;;5.40;2.30;;;;;;;;;;4894533;29;20053;-82
2023/07/13 04:26:43;;;;;;;6.43;2.33;;;;;;;;;;4891297;29;20025;-82
2023/07/13 04:29:15;;;;;;;5.35;3.08;;;;;;;;;;4900047;29;20040;-84
2023/07/13 05:02:04;;;;;;;5.78;2.42;;;;;;;;;;4903702;29;20047;-83
2023/07/13 05:20:59;;;;;;;6.72;3.00;;;;;;;;;;4832705;29;20101;-84
2023/07/13 05:30:16;;;;;;;6.70;3.55;;;;;;;;;;4834351;29;20079;-84
2023/07/13 05:59:45;;;;;;;7.97;3.85;;;;;;;;;;4860775;29;20315;-82
2023/07/13 06:02:12;;;;;;;10.95;3.75;;;;;;;;;;4905564;29;20752;-81
2023/07/13 06:04:38;;;;;;;11.05;3.83;;;;;;;;;;4897871;29;20028;-81
2023/07/13 06:07:10;;;;;;;10.13;3.80;;;;;;;;;;4893646;29;20039;-82
2023/07/13 06:09:40;;;;;;;10.30;3.50;;;;;;;;;;4870025;29;20041;-81
2023/07/13 06:16:04;;;;;;;8.23;3.38;;;;;;;;;;4878606;29;20052;-81
2023/07/13 06:18:31;;;;;;;7.68;3.35;;;;;;;;;;4894105;29;20388;-81
2023/07/13 06:20:58;;;;;;;8.25;3.28;;;;;;;;;;4894467;29;20420;-82
2023/07/13 06:23:29;;;;;;;12.23;4.03;;;;;;;;;;4891932;29;20029;-82
2023/07/13 06:25:56;;;;;;;15.50;3.58;;;;;;;;;;4898863;29;20029;-80
2023/07/13 06:28:22;;;;;;;6.88;3.03;;;;;;;;;;4898179;29;20040;-80
2023/07/13 06:30:53;;;;;;;9.85;3.03;;;19.60;99.90;;;;;;4897543;29;20033;-80
2023/07/13 06:33:20;;;;;;;9.18;3.17;;;;;;;;;;4900361;29;20085;-79
2023/07/13 06:35:47;;;;;;;8.18;2.60;;;;;;;;;;4896570;29;20047;-80
2023/07/13 06:38:16;;;;;;;7.05;2.90;;;;;;;;;;4898441;29;20117;-81
2023/07/13 06:40:45;;;;;;;7.82;3.15;;;;;;;;;;4886865;29;20028;-83
2023/07/13 06:43:11;;;;;;;10.43;3.10;;;;;;;;;;4892218;29;20040;-81
2023/07/13 06:45:49;;;;;;;9.60;2.47;;;;;;;;;;4893666;29;20032;-81
2023/07/13 06:48:20;;;;;;;9.93;2.83;;;;;;;;;;4894809;29;20025;-81
2023/07/13 06:50:47;;;;;;;5.40;2.15;;;20.40;99.90;;;;;;4880662;29;20495;-80
2023/07/13 06:53:13;;;;;;;7.75;2.38;;;;;;;;;;4899161;29;20044;-80
2023/07/13 06:55:40;;;;;;;8.25;2.22;;;20.40;99.90;;;;;;4898270;29;20041;-78
2023/07/13 06:58:06;;;;;;;9.23;2.10;;;20.40;99.90;;;;;;4887141;29;20037;-79
2023/07/13 07:00:32;;;;;;;6.63;2.00;;;20.30;99.90;;;;;;4889100;29;20111;-79
2023/07/13 07:02:57;;;;;;;9.10;2.50;;;20.30;99.90;;;;;;4895001;29;20173;-79
2023/07/13 07:05:23;;;;;;;8.23;2.70;;;;;;;;;;4883018;29;20036;-80
2023/07/13 07:07:54;;;;;;;6.00;2.35;;;20.30;99.90;;;;;;4895984;29;20196;-79
2023/07/13 07:10:21;;;;;;;5.95;2.33;;;;;;;;;;4894936;29;20172;-79
2023/07/13 07:12:47;;;;;;;6.40;2.33;;;;;;;;;;4900630;29;20579;-79
2023/07/13 07:15:13;;;;;;;7.85;2.55;;;;;;;;;;4895931;29;20041;-79
2023/07/13 07:17:39;;;;;;;7.00;2.30;;;20.00;99.90;;;;;;4895321;29;20087;-79
2023/07/13 07:20:05;;;;;;;7.65;2.28;;;20.10;99.90;;;;;;4903410;29;20068;-80
2023/07/13 07:22:31;;;;;;;11.77;3.97;;;20.20;99.90;;;;;;4890865;29;20103;-79
2023/07/13 07:24:57;;;;;;;9.40;2.47;;;20.30;99.90;;;;;;4894453;29;20605;-80
2023/07/13 07:27:24;;;;;;;6.85;2.13;;;20.40;99.90;;;;;;4897524;29;20032;-79
2023/07/13 07:29:50;;;;;;;10.60;2.30;;;;;;;;;;4891826;29;20403;-79
2023/07/13 07:32:16;;;;;;;8.95;2.72;;;20.50;99.90;;;;;;4901852;29;20502;-79
2023/07/13 07:34:42;;;;;;;6.15;1.95;;;;;;;;;;4897549;29;20111;-79
2023/07/13 07:37:12;;;;;;;7.53;2.30;;;20.80;99.90;;;;;;4895195;29;20652;-80
2023/07/13 07:39:38;;;;;;;8.57;2.50;;;;;;;;;;4897357;29;20074;-79
2023/07/13 07:42:04;;;;;;;9.70;3.00;;;20.80;99.90;;;;;;4895106;29;20047;-79
2023/07/13 07:44:34;;;;;;;6.35;2.30;;;20.90;99.90;;;;;;4911617;29;20096;-80
2023/07/13 07:47:00;;;;;;;7.65;2.42;;;;;;;;;;4908517;29;20052;-79
2023/07/13 07:49:26;;;;;;;10.48;2.75;;;;;;;;;;4891170;29;20029;-80
2023/07/13 07:51:52;;;;;;;8.52;2.60;;;21.00;99.90;;;;;;4894290;29;20073;-79
2023/07/13 07:54:18;;;;;;;9.52;2.65;;;;;;;;;;4899435;29;20412;-80
2023/07/13 07:56:43;;;;;;;9.57;3.45;;;21.00;99.90;;;;;;4895697;29;20107;-80
2023/07/13 07:59:09;;;;;;;13.38;2.75;;;21.00;99.90;;;;;;4910174;29;20041;-80
2023/07/13 08:01:36;;;;;;;11.15;2.53;;;;;;;;;;4909993;29;20032;-80
2023/07/13 08:04:02;;;;;;;5.80;2.03;;;;;;;;;;4897533;29;20187;-80
2023/07/13 08:06:28;;;;;;;10.18;2.50;;;21.50;99.40;;;;;;4900272;29;20043;-81
2023/07/13 08:08:55;;;;;;;10.75;2.83;;;;;;;;;;4899681;29;20032;-80
2023/07/13 08:11:22;;;;;;;7.70;1.90;;;21.40;99.50;;;;;;4899528;29;20028;-80
2023/07/13 08:13:48;;;;;;;6.75;2.60;;;;;;;;;;4896597;29;20028;-80
2023/07/13 08:16:14;;;;;;;6.75;2.20;;;;;;;;;;4897420;29;20037;-80
2023/07/13 08:18:40;;;;;;;8.23;2.55;;;;;;;;;;4898340;29;20032;-81
2023/07/13 08:21:07;;;;;;;5.80;1.73;;;21.60;99.30;;;;;;4890420;29;20036;-80
2023/07/13 08:23:34;;;;;;;6.50;2.15;;;21.60;98.70;;;;;;4897394;29;20044;-80
2023/07/13 08:26:04;;;;;;;5.72;1.52;;;21.70;98.80;;;;;;4893156;29;20036;-80
2023/07/13 08:28:30;;;;;;;6.65;1.75;;;21.80;97.70;;;;;;4891422;29;20467;-79
2023/07/13 08:31:04;;;;;;;5.82;1.75;;;21.90;97.90;;;;;;4896913;29;20036;-80
2023/07/13 08:33:30;;;;;;;7.80;1.77;;;22.00;97.90;;;;;;4897759;29;20048;-80
2023/07/13 08:35:56;;;;;;;7.13;2.35;;;;;;;;;;4899920;29;20048;-80
2023/07/13 08:38:23;;;;;;;5.03;1.55;;;;;;;;;;4894014;29;20089;-80
2023/07/13 08:40:53;;;;;;;9.32;2.13;;;22.70;97.50;;;;;;4890121;29;20428;-80
2023/07/13 08:43:34;;;;;;;6.15;1.70;;;22.90;96.80;;;;;;4892929;29;20109;-80
2023/07/13 08:46:32;;;;;;;4.05;1.30;;;23.10;96.60;;;;;;4889785;29;20032;-80
2023/07/13 08:49:11;;;;;;;8.57;1.65;;;23.30;96.20;;;;;;4860844;29;20041;-81
2023/07/13 08:51:53;;;;;;;5.18;1.63;;;23.30;95.80;;;;;;4901508;29;20033;-79
2023/07/13 08:54:19;;;;;;;5.75;1.33;;;;;;;;;;4892768;29;20040;-79
2023/07/13 08:56:47;;;;;;;6.15;1.50;;;23.10;95.50;;;;;;4890813;29;20441;-80
2023/07/13 08:59:17;;;;;;;5.18;1.83;;;23.10;96.00;;;;;;4892649;29;20036;-79
2023/07/13 09:02:21;;;;;;;5.90;1.23;;;23.10;96.20;;;;;;4905683;29;20388;-79
2023/07/13 09:05:10;;;;;;;6.60;1.98;;;23.10;95.50;;;;;;4892478;29;20044;-79
2023/07/13 09:08:01;;;;;;;4.97;1.60;;;23.20;95.10;;;;;;4896443;29;20052;-80
2023/07/13 09:10:40;;;;;;;6.05;1.65;;;23.20;94.90;;;;;;4904721;29;20113;-79
2023/07/13 09:13:06;;;;;;;5.15;1.67;;;;;;;;;;4903591;29;20044;-79
2023/07/13 09:15:39;;;;;;;5.95;1.60;;;23.10;94.60;;;;;;4896142;29;20040;-79
2023/07/13 09:18:11;;;;;;;3.92;1.48;;;23.20;94.50;;;;;;4902408;29;20037;-79
2023/07/13 09:21:26;;;;;;;2.80;1.27;;;23.20;94.50;;;;;;4900324;29;20036;-82
2023/07/13 09:23:58;;;;;;;6.75;1.67;;;;;;;;;;4894011;29;20040;-81
2023/07/13 09:26:26;;;;;;;4.65;1.30;;;;;;;;;;4916005;29;20487;-81
2023/07/13 09:29:17;;;;;;;4.28;1.55;;;;;;;;;;4902059;29;20040;-81
2023/07/13 09:31:58;;;;;;;4.78;2.60;;;24.00;93.50;;;;;;4892403;29;20032;-81
2023/07/13 09:34:26;;;;;;;4.85;1.83;;;24.00;93.30;;;;;;4906784;29;20103;-80
2023/07/13 09:37:00;;;;;;;5.15;1.33;;;;;;;;;;4895971;29;20025;-81
2023/07/13 09:39:26;;;;;;;3.63;1.48;;;;;;;;;;4910403;29;20075;-80
2023/07/13 09:42:19;;;;;;;5.35;1.55;;;;;;;;;;4900781;29;20075;-80
2023/07/13 09:44:54;;;;;;;2.47;1.30;;;;;;;;;;4900401;29;20096;-81
2023/07/13 09:54:04;;;;;;;5.93;1.50;;;;;;;;;;4896169;29;20088;-81
2023/07/13 09:56:49;;;;;;;3.85;1.33;;;;;;;;;;4901796;29;20047;-82
2023/07/13 09:59:32;;;;;;;3.72;1.25;;;;;;;;;;4904105;29;20037;-81
2023/07/13 10:02:00;;;;;;;3.20;1.25;;;;;;;;;;4909171;29;20090;-80
2023/07/13 10:04:41;;;;;;;2.85;1.40;;;;;;;;;;4901812;29;20032;-81
2023/07/13 10:07:14;;;;;;;5.07;1.30;;;;;;;;;;4900187;29;20043;-81
2023/07/13 10:10:14;;;;;;;6.80;1.70;;;;;;;;;;4897752;29;20032;-83
2023/07/13 10:12:41;;;;;;;4.32;1.23;;;;;;;;;;4904114;29;20020;-81
2023/07/13 10:15:14;;;;;;;3.08;1.25;;;;;;;;;;4892564;29;20029;-81
2023/07/13 10:17:43;;;;;;;7.07;1.52;;;;;;;;;;4892905;29;20039;-80
2023/07/13 10:20:16;;;;;;;3.67;1.52;;;;;;;;;;4894569;29;20041;-81
2023/07/13 10:22:57;;;;;;;4.20;1.30;;;;;;;;;;4892647;29;20060;-81
2023/07/13 10:25:31;;;;;;;3.80;1.55;;;;;;;;;;4901025;29;20122;-81
2023/07/13 10:28:01;;;;;;;3.72;1.35;;;;;;;;;;4899483;29;20128;-81
2023/07/13 10:30:32;;;;;;;;;;;25.50;84.80;;;;;;4910057;29;20025;-82
2023/07/13 10:33:04;;;;;;;6.95;1.42;;;;;;;;;;4915828;29;19923;-82
2023/07/13 10:35:32;;;;;;;3.03;1.40;;;;;;;;;;4907570;29;20472;-81
2023/07/13 10:38:10;;;;;;;4.78;1.38;;;;;;;;;;4920124;29;20033;-82
2023/07/13 10:40:44;;;;;;;4.85;2.13;;;;;;;;;;4904139;29;20479;-82
2023/07/13 10:43:19;;;;;;;4.32;1.40;;;;;;;;;;4913756;29;20097;-82
2023/07/13 10:45:50;;;;;;;3.67;1.20;;;;;;;;;;4903654;29;20040;-82
2023/07/13 10:50:55;;;;;;;5.18;1.60;;;;;;;;;;5277751;23;19923;-83
2023/07/13 14:48:45;;;;;;;4.00;1.45;;;;;;;;;;5023823;23;20116;-81
2023/07/13 14:51:13;;;;;;;4.15;1.50;;;;;;;;;;4918822;29;20062;-81
2023/07/13 14:53:39;;;;;;;3.33;1.42;;;;;;;;;;4919559;29;20036;-82
2023/07/13 14:56:11;;;;;;;4.30;1.40;;;;;;;;;;4925971;29;20032;-82
2023/07/13 14:58:41;;;;;;;3.13;1.17;;;;;;;;;;4907070;29;20312;-81
2023/07/13 15:01:13;;;;;;;3.63;1.25;;;;;;;;;;4921957;29;20039;-81
2023/07/13 15:03:42;;;;;;;4.15;1.40;;;;;;;;;;4904759;29;20040;-82
2023/07/13 15:06:11;;;;;;;3.20;1.30;;;;;;;;;;4913310;29;20033;-82
2023/07/13 15:08:48;;;;;;;5.35;1.40;;;;;;;;;;4918903;29;20040;-81
2023/07/13 15:11:32;;;;;;;4.85;1.42;;;;;;;;;;4932616;28;20024;-81
2023/07/13 15:13:59;;;;;;;2.63;1.30;;;;;;;;;;4905896;29;20036;-82
2023/07/13 15:16:26;;;;;;;6.05;1.40;;;;;;;;;;4907098;29;20035;-82
2023/07/13 15:18:53;;;;;;;4.07;1.67;;;;;;;;;;4932691;29;20040;-81
2023/07/13 15:21:34;;;;;;;4.07;1.27;;;;;;;;;;4913063;29;20028;-82
2023/07/13 15:24:02;;;;;;;4.13;1.20;;;;;;;;;;4925873;29;20075;-82
2023/07/13 15:26:30;;;;;;;4.72;1.23;;;;;;;;;;4908686;29;20028;-82
2023/07/13 15:28:58;;;;;;;4.72;1.35;;;;;;;;;;4914650;29;20056;-83
2023/07/13 15:32:06;;;;;;;3.63;1.20;;;;;;;;;;4931784;29;20063;-82
2023/07/13 15:34:47;;;;;;;3.88;1.38;;;;;;;;;;4934059;29;20105;-81
2023/07/13 15:37:17;;;;;;;3.78;1.00;;;;;;;;;;4937413;29;20024;-82
2023/07/13 15:47:55;;;;;;;7.18;1.73;;;;;;;;;;5528166;23;20037;-82
2023/07/13 17:21:45;;;;;;;5.13;1.30;;;;;;;;;;4947562;28;20051;-83
2023/07/13 17:24:53;;;;;;;5.53;1.73;;;;;;;;;;4929693;29;20088;-82
2023/07/13 17:30:58;;;;;;;6.30;1.38;;;25.60;72.30;;;;;;5209504;23;20132;-82
2023/07/13 19:26:19;;;;;;;5.18;1.80;;;;;;;;;;4897814;29;20037;-81
2023/07/13 19:28:46;;;;;;;5.78;1.60;;;;;;;;;;4895461;29;20066;-83
2023/07/13 19:31:30;;;;;;;9.10;2.25;;;23.30;79.90;;;;;;4904435;29;20044;-84
2023/07/13 19:33:59;;;;;;;8.48;2.03;;;;;;;;;;4883009;29;20065;-84
2023/07/13 19:36:35;;;;;;;6.47;2.17;;;;;;;;;;4896109;29;20036;-84
2023/07/13 19:39:06;;;;;;;5.07;2.05;;;;;;;;;;4902671;29;20297;-83
2023/07/13 19:41:38;;;;;;;9.80;2.20;;;;;;;;;;4897487;29;20009;-83
2023/07/13 19:46:40;;;;;;;3.72;1.83;;;;;;;;;;5392201;23;20060;-82
2023/07/13 19:49:16;;;;;;;7.28;1.85;;;;;;;;;;4917922;29;20024;-83
2023/07/13 19:56:56;;;;;;;3.70;1.83;;;;;;;;;;4936070;29;20044;-85
2023/07/13 19:59:39;;;;;;;5.57;2.47;;;;;;;;;;4939353;29;20058;-84
2023/07/13 20:02:06;;;;;;;5.53;1.95;;;;;;;;;;4951312;28;20092;-85
2023/07/13 20:04:33;;;;;;;3.97;1.73;;;;;;;;;;4936352;29;20052;-85
2023/07/13 20:07:02;;;;;;;6.72;1.60;;;;;;;;;;4934272;29;20062;-85
2023/07/13 20:09:34;;;;;;;;;;;22.00;86.50;;;;;;4941938;29;20043;-84
2023/07/13 20:12:09;;;;;;;5.63;1.67;;;;;;;;;;4939510;29;19910;-85
2023/07/13 20:14:36;;;;;;;6.50;2.22;;;;;;;;;;4935712;29;20032;-85
2023/07/13 20:17:03;;;;;;;3.15;1.48;;;;;;;;;;4935294;29;20024;-84
2023/07/13 20:19:40;;;;;;;4.10;1.70;;;;;;;;;;4935640;29;20031;-84
2023/07/13 20:22:15;;;;;;;9.27;1.85;;;;;;;;;;4933699;29;20024;-85
2023/07/13 20:24:50;;;;;;;5.75;1.80;;;;;;;;;;4934210;29;20050;-85
2023/07/13 20:27:17;;;;;;;5.53;1.80;;;;;;;;;;4932410;29;20028;-83
2023/07/13 20:29:47;;;;;;;4.20;2.25;;;;;;;;;;4935516;29;20027;-86
2023/07/13 20:32:16;;;;;;;7.85;2.67;;;;;;;;;;4932699;29;20024;-83
2023/07/13 20:34:46;;;;;;;5.68;2.70;;;;;;;;;;4939849;29;20040;-84
2023/07/13 20:37:31;;;;;;;6.40;2.20;;;;;;;;;;4938630;29;20083;-84
2023/07/13 20:40:00;;;;;;;5.15;2.05;;;;;;;;;;4935362;29;20107;-84
2023/07/13 20:42:45;;;;;;;4.85;1.83;;;;;;;;;;4936216;29;20141;-86
2023/07/13 20:45:12;;;;;;;5.43;2.47;;;;;;;;;;4929495;29;20043;-84
2023/07/13 20:47:40;;;;;;;7.65;1.80;;;21.00;91.40;;;;;;4946527;28;20091;-84
2023/07/13 20:50:15;;;;;;;6.97;2.10;;;;;;;;;;4934404;29;21125;-84
2023/07/13 20:52:45;;;;;;;5.70;1.95;;;;;;;;;;4937278;29;20024;-85
2023/07/13 20:55:16;;;;;;;5.63;2.17;;;;;;;;;;4934157;29;20076;-84
2023/07/13 20:57:42;;;;;;;5.78;2.35;;;;;;;;;;4947480;29;20016;-85
2023/07/13 21:00:13;;;;;;;5.05;2.00;;;;;;;;;;4932374;29;20012;-84
2023/07/13 21:02:39;;;;;;;5.22;2.40;;;;;;;;;;4929260;29;20040;-84
2023/07/13 21:05:20;;;;;;;6.00;1.92;;;;;;;;;;4930130;29;20040;-84
2023/07/13 21:25:48;;;;;;;4.07;2.00;;;;;;;;;;4917874;29;20068;-84
2023/07/13 21:28:14;;;;;;;3.85;1.90;;;;;;;;;;4891862;29;20044;-83
2023/07/13 21:30:41;;;;;;;2.88;1.50;;;;;;;;;;4904389;29;20029;-84
2023/07/13 21:33:09;;;;;;;7.25;2.25;;;;;;;;;;4893042;29;20037;-84
2023/07/13 21:35:38;;;;;;;5.90;1.77;;;;;;;;;;4903874;29;20104;-84
2023/07/13 21:38:05;;;;;;;5.78;1.98;;;;;;;;;;4911495;29;20053;-84
2023/07/13 21:40:32;;;;;;;8.68;1.80;;;;;;;;;;4893990;29;20032;-84
2023/07/13 21:42:58;;;;;;;3.83;1.77;;;;;;;;;;4908067;29;20104;-83
2023/07/13 21:45:26;;;;;;;5.85;2.42;;;;;;;;;;4889142;29;20084;-83
2023/07/13 21:47:54;;;;;;;4.50;2.10;;;;;;;;;;4898885;29;20037;-83
2023/07/13 21:50:22;;;;;;;3.85;2.03;;;;;;;;;;4872049;29;20090;-84
2023/07/13 21:52:48;;;;;;;5.05;1.95;;;;;;;;;;4876785;29;20033;-84
2023/07/13 21:55:23;;;;;;;5.95;2.10;;;;;;;;;;4905887;29;20024;-84
2023/07/13 21:57:59;;;;;;;7.15;1.80;;;;;;;;;;4897115;29;20075;-84
2023/07/13 22:00:26;;;;;;;4.72;1.85;;;;;;;;;;4899890;29;21616;-84
2023/07/13 22:02:59;;;;;;;8.90;2.10;;;;;;;;;;4908972;29;20033;-82
